Terminal Aerodrome Forecast
Issued by NWS Shreveport, LA

Home | Current Version | Previous Version | Text Only | Print | Product List | Glossary On
Versions: 1 2 3 4 5 6 7 8 9 10 11 12 13 14 15 16 17 18 19 20 21
000
FTUS44 KSHV 211153
TAFELD
TAF
KELD 211153Z 2112/2212 20005KT 4SM -RA BR BKN005 OVC012
     FM212000 28005KT P6SM -RA BKN025
     FM220200 30004KT P6SM VCSH OVC015
     FM220600 36004KT 3SM BR OVC008=

USA.gov is the U.S. government's official web portal to all federal, state and local government web resources and services.